sensor_id;sensor_type;location;lat;lon;timestamp;P1;durP1;ratioP1;P2;durP2;ratioP2
40955;SDS011;26687;48.254;11.454;2023-09-19T00:02:36;1.60;;;0.70;;
40955;SDS011;26687;48.254;11.454;2023-09-19T00:05:37;1.55;;;0.60;;
40955;SDS011;26687;48.254;11.454;2023-09-19T00:08:44;1.35;;;0.80;;
40955;SDS011;26687;48.254;11.454;2023-09-19T00:11:44;2.03;;;0.73;;
40955;SDS011;26687;48.254;11.454;2023-09-19T00:14:47;1.23;;;0.60;;
40955;SDS011;26687;48.254;11.454;2023-09-19T00:17:47;1.33;;;0.70;;
40955;SDS011;26687;48.254;11.454;2023-09-19T00:20:48;1.20;;;0.83;;
40955;SDS011;26687;48.254;11.454;2023-09-19T00:23:49;1.48;;;0.70;;
40955;SDS011;26687;48.254;11.454;2023-09-19T00:26:51;2.15;;;0.90;;
40955;SDS011;26687;48.254;11.454;2023-09-19T00:29:51;1.07;;;0.67;;
40955;SDS011;26687;48.254;11.454;2023-09-19T00:32:53;1.33;;;0.98;;
40955;SDS011;26687;48.254;11.454;2023-09-19T00:35:53;1.07;;;0.77;;
40955;SDS011;26687;48.254;11.454;2023-09-19T00:38:53;1.00;;;0.65;;
40955;SDS011;26687;48.254;11.454;2023-09-19T00:41:53;1.65;;;0.95;;
40955;SDS011;26687;48.254;11.454;2023-09-19T00:44:54;1.25;;;0.95;;
40955;SDS011;26687;48.254;11.454;2023-09-19T00:47:54;1.02;;;0.73;;
40955;SDS011;26687;48.254;11.454;2023-09-19T00:50:56;1.73;;;0.80;;
40955;SDS011;26687;48.254;11.454;2023-09-19T00:53:56;1.25;;;0.85;;
40955;SDS011;26687;48.254;11.454;2023-09-19T00:56:58;1.00;;;0.80;;
40955;SDS011;26687;48.254;11.454;2023-09-19T00:59:58;2.77;;;0.80;;
40955;SDS011;26687;48.254;11.454;2023-09-19T01:03:00;0.90;;;0.68;;
40955;SDS011;26687;48.254;11.454;2023-09-19T01:06:03;1.08;;;0.70;;
40955;SDS011;26687;48.254;11.454;2023-09-19T01:09:03;1.35;;;0.60;;
40955;SDS011;26687;48.254;11.454;2023-09-19T01:12:04;1.45;;;0.80;;
40955;SDS011;26687;48.254;11.454;2023-09-19T01:15:11;0.85;;;0.57;;
40955;SDS011;26687;48.254;11.454;2023-09-19T01:31:03;2.80;;;0.90;;
40955;SDS011;26687;48.254;11.454;2023-09-19T01:34:09;1.50;;;1.00;;
40955;SDS011;26687;48.254;11.454;2023-09-19T01:37:09;2.13;;;0.80;;
40955;SDS011;26687;48.254;11.454;2023-09-19T01:40:10;1.60;;;0.90;;
40955;SDS011;26687;48.254;11.454;2023-09-19T01:46:21;1.30;;;0.70;;
40955;SDS011;26687;48.254;11.454;2023-09-19T01:49:37;1.25;;;0.98;;
40955;SDS011;26687;48.254;11.454;2023-09-19T01:52:46;1.83;;;0.90;;
40955;SDS011;26687;48.254;11.454;2023-09-19T01:55:48;2.10;;;0.85;;
40955;SDS011;26687;48.254;11.454;2023-09-19T01:58:50;1.25;;;0.88;;
40955;SDS011;26687;48.254;11.454;2023-09-19T02:01:53;1.15;;;0.98;;
40955;SDS011;26687;48.254;11.454;2023-09-19T02:04:54;1.75;;;1.00;;
40955;SDS011;26687;48.254;11.454;2023-09-19T02:07:54;2.35;;;1.08;;
40955;SDS011;26687;48.254;11.454;2023-09-19T02:10:55;2.65;;;0.90;;
40955;SDS011;26687;48.254;11.454;2023-09-19T02:13:55;1.60;;;0.80;;
40955;SDS011;26687;48.254;11.454;2023-09-19T02:16:56;1.83;;;0.95;;
40955;SDS011;26687;48.254;11.454;2023-09-19T02:19:56;1.23;;;0.87;;
40955;SDS011;26687;48.254;11.454;2023-09-19T02:22:56;2.25;;;0.90;;
40955;SDS011;26687;48.254;11.454;2023-09-19T02:25:57;1.00;;;0.80;;
40955;SDS011;26687;48.254;11.454;2023-09-19T02:29:06;1.17;;;0.82;;
40955;SDS011;26687;48.254;11.454;2023-09-19T02:32:06;1.53;;;0.80;;
40955;SDS011;26687;48.254;11.454;2023-09-19T02:35:07;1.38;;;0.75;;
40955;SDS011;26687;48.254;11.454;2023-09-19T02:38:07;2.00;;;0.95;;
40955;SDS011;26687;48.254;11.454;2023-09-19T02:41:07;1.93;;;0.67;;
40955;SDS011;26687;48.254;11.454;2023-09-19T02:44:08;1.08;;;0.85;;
40955;SDS011;26687;48.254;11.454;2023-09-19T02:47:08;2.28;;;1.00;;
40955;SDS011;26687;48.254;11.454;2023-09-19T02:50:09;1.25;;;0.90;;
40955;SDS011;26687;48.254;11.454;2023-09-19T02:53:15;1.35;;;0.95;;
40955;SDS011;26687;48.254;11.454;2023-09-19T02:56:16;2.13;;;1.00;;
40955;SDS011;26687;48.254;11.454;2023-09-19T02:59:16;0.90;;;0.70;;
40955;SDS011;26687;48.254;11.454;2023-09-19T03:02:16;2.17;;;1.00;;
40955;SDS011;26687;48.254;11.454;2023-09-19T03:05:18;1.98;;;0.77;;
40955;SDS011;26687;48.254;11.454;2023-09-19T03:08:18;1.33;;;0.93;;
40955;SDS011;26687;48.254;11.454;2023-09-19T03:11:19;1.83;;;0.90;;
40955;SDS011;26687;48.254;11.454;2023-09-19T03:14:22;1.75;;;1.00;;
40955;SDS011;26687;48.254;11.454;2023-09-19T03:17:23;2.33;;;0.80;;
40955;SDS011;26687;48.254;11.454;2023-09-19T03:20:23;0.98;;;0.80;;
40955;SDS011;26687;48.254;11.454;2023-09-19T03:23:25;1.10;;;1.00;;
40955;SDS011;26687;48.254;11.454;2023-09-19T03:26:26;1.10;;;1.00;;
40955;SDS011;26687;48.254;11.454;2023-09-19T03:29:26;1.17;;;1.08;;
40955;SDS011;26687;48.254;11.454;2023-09-19T03:32:27;1.70;;;1.10;;
40955;SDS011;26687;48.254;11.454;2023-09-19T03:35:27;2.30;;;1.17;;
40955;SDS011;26687;48.254;11.454;2023-09-19T03:38:27;1.60;;;1.30;;
40955;SDS011;26687;48.254;11.454;2023-09-19T03:41:31;2.13;;;1.30;;
40955;SDS011;26687;48.254;11.454;2023-09-19T03:44:31;1.55;;;1.17;;
40955;SDS011;26687;48.254;11.454;2023-09-19T03:47:31;2.45;;;1.33;;
40955;SDS011;26687;48.254;11.454;2023-09-19T03:50:31;1.58;;;1.23;;
40955;SDS011;26687;48.254;11.454;2023-09-19T03:53:33;2.05;;;1.48;;
40955;SDS011;26687;48.254;11.454;2023-09-19T03:56:33;3.23;;;1.43;;
40955;SDS011;26687;48.254;11.454;2023-09-19T03:59:33;1.10;;;0.90;;
40955;SDS011;26687;48.254;11.454;2023-09-19T04:02:35;2.03;;;1.40;;
40955;SDS011;26687;48.254;11.454;2023-09-19T04:05:35;1.37;;;1.00;;
40955;SDS011;26687;48.254;11.454;2023-09-19T04:08:35;2.13;;;1.60;;
40955;SDS011;26687;48.254;11.454;2023-09-19T04:11:36;2.57;;;1.30;;
40955;SDS011;26687;48.254;11.454;2023-09-19T04:14:36;1.33;;;1.08;;
40955;SDS011;26687;48.254;11.454;2023-09-19T04:17:36;1.97;;;1.50;;
40955;SDS011;26687;48.254;11.454;2023-09-19T04:20:36;1.97;;;1.30;;
40955;SDS011;26687;48.254;11.454;2023-09-19T04:23:36;1.38;;;1.25;;
40955;SDS011;26687;48.254;11.454;2023-09-19T04:26:36;1.40;;;1.00;;
40955;SDS011;26687;48.254;11.454;2023-09-19T04:29:37;1.98;;;1.10;;
40955;SDS011;26687;48.254;11.454;2023-09-19T04:32:40;2.75;;;1.15;;
40955;SDS011;26687;48.254;11.454;2023-09-19T04:35:41;2.97;;;1.10;;
40955;SDS011;26687;48.254;11.454;2023-09-19T04:38:42;1.45;;;1.02;;
40955;SDS011;26687;48.254;11.454;2023-09-19T04:41:42;1.60;;;0.98;;
40955;SDS011;26687;48.254;11.454;2023-09-19T04:44:42;3.10;;;1.20;;
40955;SDS011;26687;48.254;11.454;2023-09-19T04:47:43;2.30;;;0.90;;
40955;SDS011;26687;48.254;11.454;2023-09-19T04:50:43;1.77;;;1.15;;
40955;SDS011;26687;48.254;11.454;2023-09-19T04:53:44;2.53;;;1.02;;
40955;SDS011;26687;48.254;11.454;2023-09-19T04:56:44;2.47;;;0.90;;
40955;SDS011;26687;48.254;11.454;2023-09-19T04:59:44;2.25;;;0.85;;
40955;SDS011;26687;48.254;11.454;2023-09-19T05:02:49;1.65;;;0.90;;
40955;SDS011;26687;48.254;11.454;2023-09-19T05:05:49;1.42;;;1.02;;
40955;SDS011;26687;48.254;11.454;2023-09-19T05:08:50;1.20;;;0.90;;
40955;SDS011;26687;48.254;11.454;2023-09-19T05:11:53;1.38;;;1.00;;
40955;SDS011;26687;48.254;11.454;2023-09-19T05:14:53;1.85;;;1.08;;
40955;SDS011;26687;48.254;11.454;2023-09-19T05:17:53;1.05;;;0.95;;
40955;SDS011;26687;48.254;11.454;2023-09-19T05:20:55;0.93;;;0.80;;
40955;SDS011;26687;48.254;11.454;2023-09-19T05:23:56;1.08;;;0.98;;
40955;SDS011;26687;48.254;11.454;2023-09-19T05:26:56;1.80;;;0.67;;
40955;SDS011;26687;48.254;11.454;2023-09-19T05:29:57;1.20;;;0.90;;
40955;SDS011;26687;48.254;11.454;2023-09-19T05:32:57;3.15;;;1.00;;
40955;SDS011;26687;48.254;11.454;2023-09-19T05:35:58;1.52;;;0.75;;
40955;SDS011;26687;48.254;11.454;2023-09-19T05:38:58;2.83;;;0.93;;
40955;SDS011;26687;48.254;11.454;2023-09-19T05:41:59;1.45;;;0.70;;
40955;SDS011;26687;48.254;11.454;2023-09-19T05:45:00;0.55;;;0.43;;
40955;SDS011;26687;48.254;11.454;2023-09-19T05:48:07;2.20;;;0.80;;
40955;SDS011;26687;48.254;11.454;2023-09-19T05:51:08;2.78;;;0.80;;
40955;SDS011;26687;48.254;11.454;2023-09-19T05:54:09;1.25;;;0.75;;
40955;SDS011;26687;48.254;11.454;2023-09-19T05:57:11;2.13;;;0.88;;
40955;SDS011;26687;48.254;11.454;2023-09-19T06:00:12;1.13;;;0.80;;
40955;SDS011;26687;48.254;11.454;2023-09-19T06:03:13;1.77;;;0.70;;
40955;SDS011;26687;48.254;11.454;2023-09-19T06:06:14;1.23;;;0.75;;
40955;SDS011;26687;48.254;11.454;2023-09-19T06:09:14;1.27;;;0.70;;
40955;SDS011;26687;48.254;11.454;2023-09-19T06:12:14;0.80;;;0.60;;
40955;SDS011;26687;48.254;11.454;2023-09-19T06:15:17;1.10;;;0.70;;
40955;SDS011;26687;48.254;11.454;2023-09-19T06:18:22;1.65;;;0.70;;
40955;SDS011;26687;48.254;11.454;2023-09-19T06:21:26;0.98;;;0.60;;
40955;SDS011;26687;48.254;11.454;2023-09-19T06:24:26;0.90;;;0.60;;
40955;SDS011;26687;48.254;11.454;2023-09-19T06:27:27;1.50;;;0.73;;
40955;SDS011;26687;48.254;11.454;2023-09-19T06:30:27;0.98;;;0.68;;
40955;SDS011;26687;48.254;11.454;2023-09-19T06:33:29;1.67;;;0.80;;
40955;SDS011;26687;48.254;11.454;2023-09-19T06:36:31;0.80;;;0.70;;
40955;SDS011;26687;48.254;11.454;2023-09-19T06:39:31;3.05;;;0.77;;
40955;SDS011;26687;48.254;11.454;2023-09-19T06:42:31;1.53;;;0.70;;
40955;SDS011;26687;48.254;11.454;2023-09-19T06:45:32;1.95;;;0.50;;
40955;SDS011;26687;48.254;11.454;2023-09-19T06:48:33;1.87;;;0.93;;
40955;SDS011;26687;48.254;11.454;2023-09-19T06:51:33;1.10;;;0.47;;
40955;SDS011;26687;48.254;11.454;2023-09-19T06:54:34;0.68;;;0.45;;
40955;SDS011;26687;48.254;11.454;2023-09-19T06:57:36;1.27;;;0.80;;
40955;SDS011;26687;48.254;11.454;2023-09-19T07:00:36;2.33;;;0.73;;
40955;SDS011;26687;48.254;11.454;2023-09-19T07:03:37;1.02;;;0.70;;
40955;SDS011;26687;48.254;11.454;2023-09-19T07:06:37;1.50;;;0.60;;
40955;SDS011;26687;48.254;11.454;2023-09-19T07:09:38;2.47;;;0.55;;
40955;SDS011;26687;48.254;11.454;2023-09-19T07:12:38;0.50;;;0.50;;
40955;SDS011;26687;48.254;11.454;2023-09-19T07:15:38;1.63;;;0.63;;
40955;SDS011;26687;48.254;11.454;2023-09-19T07:18:41;1.08;;;0.60;;
40955;SDS011;26687;48.254;11.454;2023-09-19T07:21:44;0.60;;;0.50;;
40955;SDS011;26687;48.254;11.454;2023-09-19T07:24:44;1.07;;;0.70;;
40955;SDS011;26687;48.254;11.454;2023-09-19T07:27:45;1.13;;;0.65;;
40955;SDS011;26687;48.254;11.454;2023-09-19T07:30:45;1.10;;;0.60;;
40955;SDS011;26687;48.254;11.454;2023-09-19T07:33:46;0.67;;;0.50;;
40955;SDS011;26687;48.254;11.454;2023-09-19T07:36:46;1.40;;;0.70;;
40955;SDS011;26687;48.254;11.454;2023-09-19T07:39:47;1.40;;;0.75;;
40955;SDS011;26687;48.254;11.454;2023-09-19T07:42:47;1.35;;;0.60;;
40955;SDS011;26687;48.254;11.454;2023-09-19T07:45:47;0.47;;;0.40;;
40955;SDS011;26687;48.254;11.454;2023-09-19T07:48:48;1.95;;;0.55;;
40955;SDS011;26687;48.254;11.454;2023-09-19T07:51:48;1.33;;;0.70;;
40955;SDS011;26687;48.254;11.454;2023-09-19T07:54:49;2.03;;;0.90;;
40955;SDS011;26687;48.254;11.454;2023-09-19T07:57:49;1.08;;;0.75;;
40955;SDS011;26687;48.254;11.454;2023-09-19T08:00:49;1.03;;;0.63;;
40955;SDS011;26687;48.254;11.454;2023-09-19T08:03:50;1.83;;;0.80;;
40955;SDS011;26687;48.254;11.454;2023-09-19T08:06:50;0.90;;;0.60;;
40955;SDS011;26687;48.254;11.454;2023-09-19T08:09:51;0.75;;;0.40;;
40955;SDS011;26687;48.254;11.454;2023-09-19T08:12:52;0.88;;;0.43;;
40955;SDS011;26687;48.254;11.454;2023-09-19T08:15:57;1.00;;;0.65;;
40955;SDS011;26687;48.254;11.454;2023-09-19T08:18:58;0.65;;;0.60;;
40955;SDS011;26687;48.254;11.454;2023-09-19T08:21:58;1.73;;;0.68;;
40955;SDS011;26687;48.254;11.454;2023-09-19T08:24:58;0.60;;;0.60;;
40955;SDS011;26687;48.254;11.454;2023-09-19T08:27:59;1.95;;;0.60;;
40955;SDS011;26687;48.254;11.454;2023-09-19T08:31:04;0.70;;;0.50;;
40955;SDS011;26687;48.254;11.454;2023-09-19T08:34:05;1.08;;;0.63;;
40955;SDS011;26687;48.254;11.454;2023-09-19T08:37:05;0.93;;;0.50;;
40955;SDS011;26687;48.254;11.454;2023-09-19T08:40:06;1.73;;;0.65;;
40955;SDS011;26687;48.254;11.454;2023-09-19T08:43:09;1.98;;;0.50;;
40955;SDS011;26687;48.254;11.454;2023-09-19T08:46:10;2.58;;;0.70;;
40955;SDS011;26687;48.254;11.454;2023-09-19T08:52:28;0.70;;;0.45;;
40955;SDS011;26687;48.254;11.454;2023-09-19T08:55:33;1.15;;;0.50;;
40955;SDS011;26687;48.254;11.454;2023-09-19T08:58:34;1.40;;;0.50;;
40955;SDS011;26687;48.254;11.454;2023-09-19T09:01:36;1.15;;;0.50;;
40955;SDS011;26687;48.254;11.454;2023-09-19T09:04:41;1.58;;;0.60;;
40955;SDS011;26687;48.254;11.454;2023-09-19T09:07:41;2.38;;;0.60;;
40955;SDS011;26687;48.254;11.454;2023-09-19T09:10:43;1.17;;;0.50;;
40955;SDS011;26687;48.254;11.454;2023-09-19T09:13:44;0.90;;;0.43;;
40955;SDS011;26687;48.254;11.454;2023-09-19T09:16:44;1.45;;;0.60;;
40955;SDS011;26687;48.254;11.454;2023-09-19T09:19:48;0.57;;;0.57;;
40955;SDS011;26687;48.254;11.454;2023-09-19T09:25:50;0.95;;;0.50;;
40955;SDS011;26687;48.254;11.454;2023-09-19T09:28:54;1.38;;;0.45;;
40955;SDS011;26687;48.254;11.454;2023-09-19T09:31:55;0.85;;;0.52;;
40955;SDS011;26687;48.254;11.454;2023-09-19T09:35:00;0.80;;;0.45;;
40955;SDS011;26687;48.254;11.454;2023-09-19T09:38:01;1.80;;;0.60;;
40955;SDS011;26687;48.254;11.454;2023-09-19T09:41:06;0.52;;;0.45;;
40955;SDS011;26687;48.254;11.454;2023-09-19T09:44:14;1.40;;;0.60;;
40955;SDS011;26687;48.254;11.454;2023-09-19T09:47:20;1.42;;;0.50;;
40955;SDS011;26687;48.254;11.454;2023-09-19T09:50:38;1.42;;;0.50;;
40955;SDS011;26687;48.254;11.454;2023-09-19T09:53:53;1.05;;;0.47;;
40955;SDS011;26687;48.254;11.454;2023-09-19T09:57:10;1.92;;;0.50;;
40955;SDS011;26687;48.254;11.454;2023-09-19T10:00:13;0.88;;;0.40;;
40955;SDS011;26687;48.254;11.454;2023-09-19T10:03:20;1.60;;;0.50;;
40955;SDS011;26687;48.254;11.454;2023-09-19T10:06:21;0.57;;;0.45;;
40955;SDS011;26687;48.254;11.454;2023-09-19T10:09:24;1.20;;;0.50;;
40955;SDS011;26687;48.254;11.454;2023-09-19T10:12:29;2.22;;;0.70;;
40955;SDS011;26687;48.254;11.454;2023-09-19T10:15:31;2.73;;;0.60;;
40955;SDS011;26687;48.254;11.454;2023-09-19T10:18:31;1.63;;;0.50;;
40955;SDS011;26687;48.254;11.454;2023-09-19T10:21:33;0.70;;;0.57;;
40955;SDS011;26687;48.254;11.454;2023-09-19T10:24:34;1.27;;;0.60;;
40955;SDS011;26687;48.254;11.454;2023-09-19T10:27:36;1.80;;;0.60;;
40955;SDS011;26687;48.254;11.454;2023-09-19T10:30:38;2.55;;;0.68;;
40955;SDS011;26687;48.254;11.454;2023-09-19T10:33:44;2.70;;;0.50;;
40955;SDS011;26687;48.254;11.454;2023-09-19T10:36:45;1.27;;;0.63;;
40955;SDS011;26687;48.254;11.454;2023-09-19T10:39:46;1.00;;;0.50;;
40955;SDS011;26687;48.254;11.454;2023-09-19T10:42:48;1.27;;;0.50;;
40955;SDS011;26687;48.254;11.454;2023-09-19T10:45:49;1.70;;;0.55;;
40955;SDS011;26687;48.254;11.454;2023-09-19T10:48:49;0.75;;;0.45;;
40955;SDS011;26687;48.254;11.454;2023-09-19T10:51:54;0.60;;;0.50;;
40955;SDS011;26687;48.254;11.454;2023-09-19T10:54:58;1.17;;;0.50;;
40955;SDS011;26687;48.254;11.454;2023-09-19T10:58:01;1.95;;;0.55;;
40955;SDS011;26687;48.254;11.454;2023-09-19T11:01:01;0.95;;;0.45;;
40955;SDS011;26687;48.254;11.454;2023-09-19T11:04:24;1.95;;;0.50;;
40955;SDS011;26687;48.254;11.454;2023-09-19T11:07:26;0.70;;;0.43;;
40955;SDS011;26687;48.254;11.454;2023-09-19T11:13:46;0.82;;;0.60;;
40955;SDS011;26687;48.254;11.454;2023-09-19T11:20:17;1.58;;;0.55;;
40955;SDS011;26687;48.254;11.454;2023-09-19T11:23:24;0.80;;;0.60;;
40955;SDS011;26687;48.254;11.454;2023-09-19T11:27:26;1.15;;;0.60;;
40955;SDS011;26687;48.254;11.454;2023-09-19T11:30:25;0.55;;;0.40;;
40955;SDS011;26687;48.254;11.454;2023-09-19T11:33:19;0.82;;;0.60;;
40955;SDS011;26687;48.254;11.454;2023-09-19T11:36:37;0.95;;;0.50;;
40955;SDS011;26687;48.254;11.454;2023-09-19T11:39:38;1.83;;;0.60;;
40955;SDS011;26687;48.254;11.454;2023-09-19T11:42:45;1.93;;;0.50;;
40955;SDS011;26687;48.254;11.454;2023-09-19T11:49:07;1.52;;;0.40;;
40955;SDS011;26687;48.254;11.454;2023-09-19T11:52:18;0.93;;;0.52;;
40955;SDS011;26687;48.254;11.454;2023-09-19T11:55:22;0.55;;;0.40;;
40955;SDS011;26687;48.254;11.454;2023-09-19T11:58:25;0.60;;;0.60;;
40955;SDS011;26687;48.254;11.454;2023-09-19T12:01:30;1.23;;;0.90;;
40955;SDS011;26687;48.254;11.454;2023-09-19T12:04:38;1.80;;;0.50;;
40955;SDS011;26687;48.254;11.454;2023-09-19T12:07:44;1.55;;;0.50;;
40955;SDS011;26687;48.254;11.454;2023-09-19T12:10:48;0.82;;;0.60;;
40955;SDS011;26687;48.254;11.454;2023-09-19T12:13:48;1.58;;;0.57;;
40955;SDS011;26687;48.254;11.454;2023-09-19T12:16:55;1.87;;;0.60;;
40955;SDS011;26687;48.254;11.454;2023-09-19T12:19:55;0.95;;;0.43;;
40955;SDS011;26687;48.254;11.454;2023-09-19T12:22:56;0.80;;;0.45;;
40955;SDS011;26687;48.254;11.454;2023-09-19T12:25:56;0.77;;;0.40;;
40955;SDS011;26687;48.254;11.454;2023-09-19T12:28:59;1.75;;;0.65;;
40955;SDS011;26687;48.254;11.454;2023-09-19T12:32:01;0.77;;;0.50;;
40955;SDS011;26687;48.254;11.454;2023-09-19T12:35:04;0.60;;;0.40;;
40955;SDS011;26687;48.254;11.454;2023-09-19T12:38:10;1.13;;;0.60;;
40955;SDS011;26687;48.254;11.454;2023-09-19T12:41:12;2.42;;;0.60;;
40955;SDS011;26687;48.254;11.454;2023-09-19T12:44:12;1.17;;;0.50;;
40955;SDS011;26687;48.254;11.454;2023-09-19T12:47:16;2.88;;;0.47;;
40955;SDS011;26687;48.254;11.454;2023-09-19T12:50:17;0.75;;;0.40;;
40955;SDS011;26687;48.254;11.454;2023-09-19T12:53:29;2.05;;;0.47;;
40955;SDS011;26687;48.254;11.454;2023-09-19T12:56:29;1.30;;;0.70;;
40955;SDS011;26687;48.254;11.454;2023-09-19T12:59:39;2.08;;;0.70;;
40955;SDS011;26687;48.254;11.454;2023-09-19T13:03:08;1.40;;;0.50;;
40955;SDS011;26687;48.254;11.454;2023-09-19T13:06:00;1.80;;;0.50;;
40955;SDS011;26687;48.254;11.454;2023-09-19T13:09:09;1.13;;;0.50;;
40955;SDS011;26687;48.254;11.454;2023-09-19T13:12:54;1.65;;;0.75;;
40955;SDS011;26687;48.254;11.454;2023-09-19T13:15:31;0.93;;;0.40;;
40955;SDS011;26687;48.254;11.454;2023-09-19T13:18:52;1.10;;;0.50;;
40955;SDS011;26687;48.254;11.454;2023-09-19T13:21:52;0.95;;;0.50;;
40955;SDS011;26687;48.254;11.454;2023-09-19T13:24:55;0.93;;;0.50;;
40955;SDS011;26687;48.254;11.454;2023-09-19T13:27:57;1.83;;;0.50;;
40955;SDS011;26687;48.254;11.454;2023-09-19T13:30:58;0.80;;;0.50;;
40955;SDS011;26687;48.254;11.454;2023-09-19T13:33:58;1.37;;;0.80;;
40955;SDS011;26687;48.254;11.454;2023-09-19T13:36:58;0.85;;;0.70;;
40955;SDS011;26687;48.254;11.454;2023-09-19T13:40:00;1.40;;;0.60;;
40955;SDS011;26687;48.254;11.454;2023-09-19T13:43:00;1.03;;;0.50;;
40955;SDS011;26687;48.254;11.454;2023-09-19T13:46:00;0.55;;;0.55;;
40955;SDS011;26687;48.254;11.454;2023-09-19T13:49:01;2.15;;;0.70;;
40955;SDS011;26687;48.254;11.454;2023-09-19T13:52:03;0.50;;;0.40;;
40955;SDS011;26687;48.254;11.454;2023-09-19T13:55:05;1.35;;;0.60;;
40955;SDS011;26687;48.254;11.454;2023-09-19T13:58:06;1.42;;;0.70;;
40955;SDS011;26687;48.254;11.454;2023-09-19T14:01:07;0.80;;;0.70;;
40955;SDS011;26687;48.254;11.454;2023-09-19T14:04:12;0.70;;;0.60;;
40955;SDS011;26687;48.254;11.454;2023-09-19T14:07:13;0.73;;;0.63;;
40955;SDS011;26687;48.254;11.454;2023-09-19T14:10:15;1.17;;;0.80;;
40955;SDS011;26687;48.254;11.454;2023-09-19T14:13:15;2.03;;;0.83;;
40955;SDS011;26687;48.254;11.454;2023-09-19T14:16:16;2.00;;;0.50;;
40955;SDS011;26687;48.254;11.454;2023-09-19T14:19:16;0.75;;;0.50;;
40955;SDS011;26687;48.254;11.454;2023-09-19T14:22:16;1.77;;;0.70;;
40955;SDS011;26687;48.254;11.454;2023-09-19T14:25:16;0.50;;;0.40;;
40955;SDS011;26687;48.254;11.454;2023-09-19T14:28:16;1.08;;;0.50;;
40955;SDS011;26687;48.254;11.454;2023-09-19T14:31:16;1.55;;;0.82;;
40955;SDS011;26687;48.254;11.454;2023-09-19T14:34:17;1.00;;;0.60;;
40955;SDS011;26687;48.254;11.454;2023-09-19T14:37:17;1.58;;;0.80;;
40955;SDS011;26687;48.254;11.454;2023-09-19T14:40:17;1.10;;;0.50;;
40955;SDS011;26687;48.254;11.454;2023-09-19T14:43:17;1.23;;;0.63;;
40955;SDS011;26687;48.254;11.454;2023-09-19T14:46:17;0.95;;;0.50;;
40955;SDS011;26687;48.254;11.454;2023-09-19T14:49:18;0.70;;;0.60;;
40955;SDS011;26687;48.254;11.454;2023-09-19T14:52:19;1.83;;;0.65;;
40955;SDS011;26687;48.254;11.454;2023-09-19T14:55:19;1.30;;;0.70;;
40955;SDS011;26687;48.254;11.454;2023-09-19T14:58:20;1.08;;;0.70;;
40955;SDS011;26687;48.254;11.454;2023-09-19T15:01:21;1.83;;;0.70;;
40955;SDS011;26687;48.254;11.454;2023-09-19T15:04:22;0.80;;;0.70;;
40955;SDS011;26687;48.254;11.454;2023-09-19T15:07:22;1.35;;;0.60;;
40955;SDS011;26687;48.254;11.454;2023-09-19T15:10:23;1.50;;;0.77;;
40955;SDS011;26687;48.254;11.454;2023-09-19T15:13:23;1.98;;;0.60;;
40955;SDS011;26687;48.254;11.454;2023-09-19T15:16:27;0.70;;;0.40;;
40955;SDS011;26687;48.254;11.454;2023-09-19T15:19:27;1.50;;;0.60;;
40955;SDS011;26687;48.254;11.454;2023-09-19T15:22:28;0.80;;;0.40;;
40955;SDS011;26687;48.254;11.454;2023-09-19T15:25:28;1.20;;;0.65;;
40955;SDS011;26687;48.254;11.454;2023-09-19T15:28:28;1.30;;;0.52;;
40955;SDS011;26687;48.254;11.454;2023-09-19T15:31:30;0.63;;;0.52;;
40955;SDS011;26687;48.254;11.454;2023-09-19T15:34:30;5.50;;;0.65;;
40955;SDS011;26687;48.254;11.454;2023-09-19T15:37:30;1.08;;;0.57;;
40955;SDS011;26687;48.254;11.454;2023-09-19T15:40:31;1.80;;;0.70;;
40955;SDS011;26687;48.254;11.454;2023-09-19T15:43:31;0.60;;;0.50;;
40955;SDS011;26687;48.254;11.454;2023-09-19T15:46:31;0.93;;;0.50;;
40955;SDS011;26687;48.254;11.454;2023-09-19T15:49:34;1.55;;;0.80;;
40955;SDS011;26687;48.254;11.454;2023-09-19T15:52:35;1.47;;;0.60;;
40955;SDS011;26687;48.254;11.454;2023-09-19T15:55:39;1.58;;;0.70;;
40955;SDS011;26687;48.254;11.454;2023-09-19T15:58:40;1.23;;;0.55;;
40955;SDS011;26687;48.254;11.454;2023-09-19T16:01:41;2.03;;;0.70;;
40955;SDS011;26687;48.254;11.454;2023-09-19T16:04:42;1.27;;;0.70;;
40955;SDS011;26687;48.254;11.454;2023-09-19T16:07:44;1.58;;;0.60;;
40955;SDS011;26687;48.254;11.454;2023-09-19T16:10:46;1.08;;;0.57;;
40955;SDS011;26687;48.254;11.454;2023-09-19T16:13:47;4.95;;;1.10;;
40955;SDS011;26687;48.254;11.454;2023-09-19T16:16:48;2.17;;;1.05;;
40955;SDS011;26687;48.254;11.454;2023-09-19T16:19:50;2.53;;;0.80;;
40955;SDS011;26687;48.254;11.454;2023-09-19T16:22:50;3.65;;;1.55;;
40955;SDS011;26687;48.254;11.454;2023-09-19T16:25:59;2.90;;;1.17;;
40955;SDS011;26687;48.254;11.454;2023-09-19T16:28:59;0.80;;;0.70;;
40955;SDS011;26687;48.254;11.454;2023-09-19T16:35:03;1.63;;;0.50;;
40955;SDS011;26687;48.254;11.454;2023-09-19T16:38:03;1.77;;;0.90;;
40955;SDS011;26687;48.254;11.454;2023-09-19T16:41:04;1.65;;;0.70;;
40955;SDS011;26687;48.254;11.454;2023-09-19T16:44:04;0.95;;;0.50;;
40955;SDS011;26687;48.254;11.454;2023-09-19T16:47:07;2.20;;;0.65;;
40955;SDS011;26687;48.254;11.454;2023-09-19T16:50:07;1.63;;;0.80;;
40955;SDS011;26687;48.254;11.454;2023-09-19T16:53:09;0.97;;;0.70;;
40955;SDS011;26687;48.254;11.454;2023-09-19T16:56:10;1.38;;;0.60;;
40955;SDS011;26687;48.254;11.454;2023-09-19T16:59:11;0.90;;;0.60;;
40955;SDS011;26687;48.254;11.454;2023-09-19T17:02:12;0.95;;;0.68;;
40955;SDS011;26687;48.254;11.454;2023-09-19T17:05:12;1.30;;;0.80;;
40955;SDS011;26687;48.254;11.454;2023-09-19T17:08:13;0.80;;;0.80;;
40955;SDS011;26687;48.254;11.454;2023-09-19T17:11:14;0.80;;;0.80;;
40955;SDS011;26687;48.254;11.454;2023-09-19T17:14:15;1.52;;;0.50;;
40955;SDS011;26687;48.254;11.454;2023-09-19T17:17:16;0.90;;;0.50;;
40955;SDS011;26687;48.254;11.454;2023-09-19T17:20:16;1.95;;;0.70;;
40955;SDS011;26687;48.254;11.454;2023-09-19T17:23:16;1.33;;;0.85;;
40955;SDS011;26687;48.254;11.454;2023-09-19T17:26:17;1.95;;;0.60;;
40955;SDS011;26687;48.254;11.454;2023-09-19T17:29:17;1.60;;;0.90;;
40955;SDS011;26687;48.254;11.454;2023-09-19T17:32:18;1.52;;;0.70;;
40955;SDS011;26687;48.254;11.454;2023-09-19T17:35:18;1.30;;;0.80;;
40955;SDS011;26687;48.254;11.454;2023-09-19T17:38:19;1.13;;;0.70;;
40955;SDS011;26687;48.254;11.454;2023-09-19T17:41:19;1.00;;;0.80;;
40955;SDS011;26687;48.254;11.454;2023-09-19T17:44:21;0.60;;;0.60;;
40955;SDS011;26687;48.254;11.454;2023-09-19T17:47:21;1.10;;;0.70;;
40955;SDS011;26687;48.254;11.454;2023-09-19T17:50:25;1.35;;;0.90;;
40955;SDS011;26687;48.254;11.454;2023-09-19T17:53:25;2.10;;;0.90;;
40955;SDS011;26687;48.254;11.454;2023-09-19T17:56:25;2.88;;;1.00;;
40955;SDS011;26687;48.254;11.454;2023-09-19T17:59:25;3.00;;;1.33;;
40955;SDS011;26687;48.254;11.454;2023-09-19T18:02:25;1.30;;;0.80;;
40955;SDS011;26687;48.254;11.454;2023-09-19T18:05:26;1.58;;;0.77;;
40955;SDS011;26687;48.254;11.454;2023-09-19T18:08:26;1.20;;;0.80;;
40955;SDS011;26687;48.254;11.454;2023-09-19T18:11:26;1.95;;;0.95;;
40955;SDS011;26687;48.254;11.454;2023-09-19T18:14:27;2.20;;;1.00;;
40955;SDS011;26687;48.254;11.454;2023-09-19T18:17:32;1.48;;;1.08;;
40955;SDS011;26687;48.254;11.454;2023-09-19T18:20:33;1.57;;;1.03;;
40955;SDS011;26687;48.254;11.454;2023-09-19T18:23:33;2.00;;;1.00;;
40955;SDS011;26687;48.254;11.454;2023-09-19T18:26:34;2.42;;;1.30;;
40955;SDS011;26687;48.254;11.454;2023-09-19T18:29:35;2.08;;;1.10;;
40955;SDS011;26687;48.254;11.454;2023-09-19T18:32:36;1.10;;;0.80;;
40955;SDS011;26687;48.254;11.454;2023-09-19T18:35:37;4.85;;;1.20;;